Time;durP1;ratioP1;P1;durP2;ratioP2;P2;SDS_P1;SDS_P2;PMS_P1;PMS_P2;Temp;Humidity;BMP_temperature;BMP_pressure;BME280_temperature;BME280_humidity;BME280_pressure;Samples;Min_cycle;Max_cycle;Signal;HPM_P1;HPM_P2
2021/04/28 00:00:14;;;;;;;;;;;10.90;42.40;;;;;;5033674;28;19925;-60
2021/04/28 00:02:41;;;;;;;;;;;10.90;42.40;;;;;;5033238;28;19941;-58
2021/04/28 00:05:09;;;;;;;;;;;11.00;42.40;;;;;;5033395;28;19925;-60
2021/04/28 00:07:36;;;;;;;;;;;11.00;42.30;;;;;;5029020;28;19932;-60
2021/04/28 00:10:04;;;;;;;;;;;11.00;42.20;;;;;;5032994;28;19925;-60
2021/04/28 00:12:31;;;;;;;;;;;11.00;42.10;;;;;;5033202;28;20002;-60
2021/04/28 00:14:57;;;;;;;;;;;11.00;42.10;;;;;;5032873;28;20326;-60
2021/04/28 00:17:23;;;;;;;;;;;11.00;42.10;;;;;;5033355;28;19929;-61
2021/04/28 00:19:51;;;;;;;;;;;11.00;42.10;;;;;;5032907;28;19929;-60
2021/04/28 00:22:17;;;;;;;;;;;11.00;42.00;;;;;;5033037;28;19936;-61
2021/04/28 00:24:43;;;;;;;;;;;10.90;42.00;;;;;;5032707;28;19956;-60
2021/04/28 00:27:10;;;;;;;;;;;10.90;42.20;;;;;;5029357;28;19925;-59
2021/04/28 00:29:36;;;;;;;;;;;10.90;42.20;;;;;;5032945;28;19925;-61
2021/04/28 00:32:03;;;;;;;;;;;10.90;42.10;;;;;;5032613;28;19925;-59
2021/04/28 00:34:30;;;;;;;;;;;10.90;42.10;;;;;;5033041;28;19998;-60
2021/04/28 00:36:57;;;;;;;;;;;10.80;42.00;;;;;;5028683;28;19929;-61
2021/04/28 00:39:23;;;;;;;;;;;10.80;42.10;;;;;;5032997;28;19925;-60
2021/04/28 00:41:50;;;;;;;;;;;10.80;42.30;;;;;;5032446;28;19940;-60
2021/04/28 00:44:17;;;;;;;;;;;10.80;42.70;;;;;;5032934;28;19925;-61
2021/04/28 00:46:43;;;;;;;;;;;10.80;42.10;;;;;;5032515;28;19925;-59
2021/04/28 00:49:09;;;;;;;;;;;10.70;42.10;;;;;;5032579;28;19925;-60
2021/04/28 00:51:36;;;;;;;;;;;10.80;42.20;;;;;;5032946;28;19936;-61
2021/04/28 00:54:04;;;;;;;;;;;10.80;42.10;;;;;;5032095;28;20273;-59
2021/04/28 00:56:30;;;;;;;;;;;10.70;42.10;;;;;;5032534;28;19929;-60
2021/04/28 00:58:56;;;;;;;;;;;10.80;42.20;;;;;;5032566;28;19925;-60
2021/04/28 01:01:23;;;;;;;;;;;10.80;42.20;;;;;;5032718;28;19925;-60
2021/04/28 01:03:50;;;;;;;;;;;10.70;42.00;;;;;;5037083;28;19940;-59
2021/04/28 01:06:16;;;;;;;;;;;10.70;42.00;;;;;;5034573;28;19963;-59
2021/04/28 01:08:43;;;;;;;;;;;10.70;42.10;;;;;;5037953;28;19991;-60
2021/04/28 01:11:11;;;;;;;;;;;10.60;42.00;;;;;;5039069;28;19925;-60
2021/04/28 01:13:37;;;;;;;;;;;10.60;42.10;;;;;;5039288;28;20390;-60
2021/04/28 01:16:03;;;;;;;;;;;10.50;42.20;;;;;;5038841;28;20314;-60
2021/04/28 01:18:30;;;;;;;;;;;10.50;42.40;;;;;;5039096;28;19929;-60
2021/04/28 01:20:56;;;;;;;;;;;10.50;42.40;;;;;;5038700;28;19925;-60
2021/04/28 01:23:23;;;;;;;;;;;10.50;42.50;;;;;;5039199;28;19929;-60
2021/04/28 01:25:50;;;;;;;;;;;10.50;42.50;;;;;;5034815;28;20055;-60
2021/04/28 01:28:19;;;;;;;;;;;10.50;42.60;;;;;;5038796;28;19932;-61
2021/04/28 01:30:47;;;;;;;;;;;10.50;42.70;;;;;;5039128;28;19929;-60
2021/04/28 01:33:16;;;;;;;;;;;10.50;42.60;;;;;;5038810;28;20658;-60
2021/04/28 01:35:42;;;;;;;;;;;10.50;42.60;;;;;;5038926;28;19948;-59
2021/04/28 01:38:09;;;;;;;;;;;10.50;42.50;;;;;;5034348;28;20376;-60
2021/04/28 01:40:36;;;;;;;;;;;10.30;42.50;;;;;;5038731;28;19925;-59
2021/04/28 01:43:03;;;;;;;;;;;10.30;42.80;;;;;;5038627;28;20387;-60
2021/04/28 01:45:33;;;;;;;;;;;10.20;42.90;;;;;;5038850;28;19948;-60
2021/04/28 01:48:00;;;;;;;;;;;10.20;43.00;;;;;;5038526;28;19929;-60
2021/04/28 01:50:27;;;;;;;;;;;10.20;43.20;;;;;;5038953;28;19948;-58
2021/04/28 01:52:53;;;;;;;;;;;10.20;43.20;;;;;;5038535;28;19925;-59
2021/04/28 01:55:20;;;;;;;;;;;10.10;43.10;;;;;;5038824;28;20267;-60
2021/04/28 01:57:47;;;;;;;;;;;10.20;43.20;;;;;;5038577;28;20244;-60
2021/04/28 02:00:16;;;;;;;;;;;10.10;43.20;;;;;;5038313;28;20275;-60
2021/04/28 02:02:43;;;;;;;;;;;10.00;43.40;;;;;;5038783;28;19925;-59
2021/04/28 02:05:12;;;;;;;;;;;10.00;43.50;;;;;;5037674;28;21419;-61
2021/04/28 02:07:39;;;;;;;;;;;10.00;43.60;;;;;;5037106;28;19991;-61
2021/04/28 02:10:06;;;;;;;;;;;9.90;44.40;;;;;;5034538;28;19944;-60
2021/04/28 02:12:32;;;;;;;;;;;9.90;44.60;;;;;;5033630;28;19936;-61
2021/04/28 02:15:00;;;;;;;;;;;10.00;43.80;;;;;;5032038;28;20279;-61
2021/04/28 02:17:26;;;;;;;;;;;10.00;43.80;;;;;;5032197;28;19925;-60
2021/04/28 02:19:53;;;;;;;;;;;10.00;43.80;;;;;;5031152;28;19932;-60
2021/04/28 02:22:20;;;;;;;;;;;10.00;43.80;;;;;;5033064;28;19926;-60
2021/04/28 02:24:46;;;;;;;;;;;10.00;43.90;;;;;;5033145;28;19937;-59
2021/04/28 02:27:13;;;;;;;;;;;10.00;44.00;;;;;;5032058;28;19933;-60
2021/04/28 02:29:39;;;;;;;;;;;9.90;44.80;;;;;;5033053;28;19940;-59
2021/04/28 02:32:07;;;;;;;;;;;9.90;44.80;;;;;;5032834;28;20339;-60
2021/04/28 02:34:34;;;;;;;;;;;9.90;44.90;;;;;;5032609;28;20275;-61
2021/04/28 02:37:01;;;;;;;;;;;9.90;45.20;;;;;;5033367;28;20252;-60
2021/04/28 02:39:29;;;;;;;;;;;9.90;45.20;;;;;;5034579;28;19925;-59
2021/04/28 02:41:56;;;;;;;;;;;9.90;45.40;;;;;;5035015;28;19979;-60
2021/04/28 02:44:25;;;;;;;;;;;9.90;45.40;;;;;;5035514;28;19932;-61
2021/04/28 02:46:53;;;;;;;;;;;9.90;45.40;;;;;;5035238;28;19932;-59
2021/04/28 02:49:21;;;;;;;;;;;9.90;45.50;;;;;;5035067;28;19992;-60
2021/04/28 02:51:48;;;;;;;;;;;9.80;45.50;;;;;;5035449;28;19991;-59
2021/04/28 02:54:15;;;;;;;;;;;9.80;45.60;;;;;;5034608;28;19936;-60
2021/04/28 02:56:41;;;;;;;;;;;9.80;45.70;;;;;;5035128;28;20300;-60
2021/04/28 02:59:08;;;;;;;;;;;9.80;45.70;;;;;;5034788;28;19925;-61
2021/04/28 03:01:35;;;;;;;;;;;9.80;45.80;;;;;;5035130;28;19924;-61
2021/04/28 03:04:01;;;;;;;;;;;9.70;45.80;;;;;;5034743;28;19925;-62
2021/04/28 03:06:29;;;;;;;;;;;9.70;45.90;;;;;;5034868;28;19925;-60
2021/04/28 03:08:56;;;;;;;;;;;9.70;46.00;;;;;;5034862;28;19948;-60
2021/04/28 03:11:22;;;;;;;;;;;9.70;46.10;;;;;;5034699;28;20631;-60
2021/04/28 03:13:49;;;;;;;;;;;9.60;46.20;;;;;;5034912;28;20264;-61
2021/04/28 03:16:15;;;;;;;;;;;9.70;46.30;;;;;;5034325;28;19928;-61
2021/04/28 03:18:42;;;;;;;;;;;9.60;46.30;;;;;;5034929;28;20364;-61
2021/04/28 03:21:09;;;;;;;;;;;9.60;46.50;;;;;;5034203;28;19987;-60
2021/04/28 03:23:36;;;;;;;;;;;9.50;46.50;;;;;;5034742;28;19936;-61
2021/04/28 03:26:02;;;;;;;;;;;9.50;46.50;;;;;;5033918;28;19925;-61
2021/04/28 03:28:29;;;;;;;;;;;9.50;46.60;;;;;;5034369;28;19926;-61
2021/04/28 03:30:55;;;;;;;;;;;9.50;46.50;;;;;;5034605;28;19933;-61
2021/04/28 03:33:21;;;;;;;;;;;9.40;46.70;;;;;;5033955;28;19925;-60
2021/04/28 03:35:48;;;;;;;;;;;9.40;46.80;;;;;;5034300;28;19925;-59
2021/04/28 03:38:14;;;;;;;;;;;9.40;46.80;;;;;;5033974;28;19925;-61
2021/04/28 03:40:41;;;;;;;;;;;9.40;46.80;;;;;;5034098;28;19925;-60
2021/04/28 03:43:07;;;;;;;;;;;9.40;46.90;;;;;;5033817;28;19925;-60
2021/04/28 03:45:34;;;;;;;;;;;9.30;46.90;;;;;;5034160;28;19925;-60
2021/04/28 03:48:00;;;;;;;;;;;9.30;47.00;;;;;;5033726;28;19929;-60
2021/04/28 03:50:26;;;;;;;;;;;9.30;47.10;;;;;;5033982;28;20360;-60
2021/04/28 03:52:53;;;;;;;;;;;9.20;47.20;;;;;;5034076;28;19925;-60
2021/04/28 03:55:19;;;;;;;;;;;9.20;47.30;;;;;;5033386;28;19929;-59
2021/04/28 03:57:46;;;;;;;;;;;9.20;47.40;;;;;;5033802;28;19929;-60
2021/04/28 04:00:13;;;;;;;;;;;9.10;47.40;;;;;;5033455;28;19932;-60
2021/04/28 04:02:40;;;;;;;;;;;9.10;47.60;;;;;;5033805;28;20429;-60
2021/04/28 04:05:06;;;;;;;;;;;9.00;47.70;;;;;;5033280;28;19925;-59
2021/04/28 04:07:33;;;;;;;;;;;9.00;47.80;;;;;;5033770;28;20311;-59
2021/04/28 04:09:59;;;;;;;;;;;9.00;47.90;;;;;;5033530;28;19929;-60
2021/04/28 04:12:25;;;;;;;;;;;9.00;48.00;;;;;;5033369;28;19929;-60
2021/04/28 04:14:52;;;;;;;;;;;9.00;48.00;;;;;;5033664;28;20334;-60
2021/04/28 04:17:19;;;;;;;;;;;9.00;48.10;;;;;;5033195;28;19929;-59
2021/04/28 04:19:45;;;;;;;;;;;8.90;48.20;;;;;;5033676;28;19929;-61
2021/04/28 04:22:13;;;;;;;;;;;9.00;48.40;;;;;;5033078;28;19925;-60
2021/04/28 04:24:40;;;;;;;;;;;9.00;48.40;;;;;;5033509;28;19933;-61
2021/04/28 04:27:06;;;;;;;;;;;9.00;48.40;;;;;;5032954;28;20406;-60
2021/04/28 04:29:32;;;;;;;;;;;9.00;48.40;;;;;;5033197;28;19925;-61
2021/04/28 04:32:00;;;;;;;;;;;9.00;48.60;;;;;;5033524;28;20279;-61
2021/04/28 04:34:26;;;;;;;;;;;9.00;48.40;;;;;;5032959;28;19925;-61
2021/04/28 04:36:52;;;;;;;;;;;9.00;48.50;;;;;;5032910;28;19929;-61
2021/04/28 04:39:19;;;;;;;;;;;9.00;48.50;;;;;;5032492;28;19929;-61
2021/04/28 04:41:45;;;;;;;;;;;9.10;48.60;;;;;;5033470;28;20267;-61
2021/04/28 04:44:11;;;;;;;;;;;9.10;48.70;;;;;;5032635;28;19925;-61
2021/04/28 04:46:38;;;;;;;;;;;9.20;48.60;;;;;;5033218;28;19925;-61
2021/04/28 04:49:05;;;;;;;;;;;9.10;48.60;;;;;;5032827;28;19925;-60
2021/04/28 04:51:31;;;;;;;;;;;9.20;48.60;;;;;;5033401;28;20421;-61
2021/04/28 04:53:57;;;;;;;;;;;9.10;48.50;;;;;;5033042;28;19932;-61
2021/04/28 04:56:24;;;;;;;;;;;9.10;48.60;;;;;;5032425;28;19924;-61
2021/04/28 04:58:50;;;;;;;;;;;9.10;48.70;;;;;;5033226;28;19925;-61
2021/04/28 05:01:16;;;;;;;;;;;9.20;48.70;;;;;;5032562;28;19925;-61
2021/04/28 05:03:43;;;;;;;;;;;9.20;48.70;;;;;;5033130;28;20002;-61
2021/04/28 05:06:10;;;;;;;;;;;9.20;48.80;;;;;;5032563;28;19929;-61
2021/04/28 05:08:37;;;;;;;;;;;9.20;48.60;;;;;;5032743;28;20376;-61
2021/04/28 05:11:03;;;;;;;;;;;9.30;49.20;;;;;;5032905;28;20070;-61
2021/04/28 05:13:29;;;;;;;;;;;9.30;48.70;;;;;;5032806;28;20355;-61
2021/04/28 05:15:56;;;;;;;;;;;9.40;48.70;;;;;;5032874;28;19979;-60
2021/04/28 05:18:22;;;;;;;;;;;9.40;48.60;;;;;;5032461;28;19932;-61
2021/04/28 05:20:48;;;;;;;;;;;9.40;48.70;;;;;;5032907;28;19944;-61
2021/04/28 05:23:15;;;;;;;;;;;9.50;48.80;;;;;;5032452;28;19925;-61
2021/04/28 05:25:42;;;;;;;;;;;9.50;48.60;;;;;;5032873;28;20356;-61
2021/04/28 05:28:08;;;;;;;;;;;9.60;48.40;;;;;;5032378;28;19987;-61
2021/04/28 05:30:34;;;;;;;;;;;9.60;48.40;;;;;;5032713;28;19925;-61
2021/04/28 05:33:01;;;;;;;;;;;9.70;48.40;;;;;;5032756;28;19925;-61
2021/04/28 05:35:27;;;;;;;;;;;9.70;48.30;;;;;;5032255;28;19933;-61
2021/04/28 05:37:54;;;;;;;;;;;9.70;48.30;;;;;;5032526;28;19932;-62
2021/04/28 05:40:21;;;;;;;;;;;9.80;48.10;;;;;;5032340;28;19926;-61
2021/04/28 05:42:48;;;;;;;;;;;9.80;48.10;;;;;;5032706;28;19937;-61
2021/04/28 05:45:15;;;;;;;;;;;9.80;47.90;;;;;;5032239;28;20271;-60
2021/04/28 05:47:41;;;;;;;;;;;9.90;47.80;;;;;;5032815;28;19925;-61
2021/04/28 05:50:08;;;;;;;;;;;9.90;47.90;;;;;;5035199;28;19936;-61
2021/04/28 05:52:35;;;;;;;;;;;9.90;47.70;;;;;;5036174;28;19933;-61
2021/04/28 05:55:01;;;;;;;;;;;9.90;47.60;;;;;;5036121;28;19925;-61
2021/04/28 05:57:30;;;;;;;;;;;9.90;47.70;;;;;;5035626;28;19924;-60
2021/04/28 05:59:56;;;;;;;;;;;9.90;47.70;;;;;;5036281;28;19925;-61
2021/04/28 06:02:22;;;;;;;;;;;10.00;47.00;;;;;;5035763;28;19932;-60
2021/04/28 06:04:49;;;;;;;;;;;10.00;47.00;;;;;;5036014;28;19970;-61
2021/04/28 06:07:15;;;;;;;;;;;10.10;46.90;;;;;;5035549;28;19936;-61
2021/04/28 06:09:41;;;;;;;;;;;10.10;46.90;;;;;;5035932;28;19924;-61
2021/04/28 06:12:08;;;;;;;;;;;10.10;46.70;;;;;;5035896;28;20371;-59
2021/04/28 06:14:35;;;;;;;;;;;10.20;46.90;;;;;;5035810;28;19932;-60
2021/04/28 06:17:05;;;;;;;;;;;10.30;46.80;;;;;;5035829;28;19932;-60
2021/04/28 06:19:32;;;;;;;;;;;10.30;46.80;;;;;;5035375;28;20453;-61
2021/04/28 06:21:58;;;;;;;;;;;10.30;46.70;;;;;;5035906;28;20363;-61
2021/04/28 06:24:24;;;;;;;;;;;10.30;46.70;;;;;;5035314;28;19925;-61
2021/04/28 06:26:51;;;;;;;;;;;10.30;46.60;;;;;;5035702;28;20371;-60
2021/04/28 06:29:17;;;;;;;;;;;10.40;46.70;;;;;;5035237;28;20305;-60
2021/04/28 06:31:44;;;;;;;;;;;10.40;46.70;;;;;;5035583;28;19925;-60
2021/04/28 06:34:11;;;;;;;;;;;10.50;46.90;;;;;;5035673;28;19925;-60
2021/04/28 06:36:37;;;;;;;;;;;10.60;46.90;;;;;;5035042;28;19925;-61
2021/04/28 06:39:04;;;;;;;;;;;10.70;46.90;;;;;;5035295;28;19925;-61
2021/04/28 06:41:31;;;;;;;;;;;10.80;46.40;;;;;;5035207;28;20058;-60
2021/04/28 06:43:57;;;;;;;;;;;10.80;46.40;;;;;;5035385;28;19925;-60
2021/04/28 06:46:23;;;;;;;;;;;10.90;46.40;;;;;;5034946;28;19933;-60
2021/04/28 06:48:50;;;;;;;;;;;10.90;46.20;;;;;;5035632;28;19948;-60
2021/04/28 06:51:17;;;;;;;;;;;10.90;46.20;;;;;;5034761;28;19925;-60
2021/04/28 06:53:43;;;;;;;;;;;11.00;46.40;;;;;;5035388;28;20367;-61
2021/04/28 06:56:09;;;;;;;;;;;11.00;46.20;;;;;;5035041;28;20308;-60
2021/04/28 06:58:36;;;;;;;;;;;11.20;46.30;;;;;;5034506;28;19948;-61
2021/04/28 07:01:02;;;;;;;;;;;11.30;46.10;;;;;;5034540;28;20248;-61
2021/04/28 07:03:29;;;;;;;;;;;11.30;45.70;;;;;;5034587;28;20206;-60
2021/04/28 07:05:56;;;;;;;;;;;11.40;45.70;;;;;;5035047;28;20264;-60
2021/04/28 07:08:22;;;;;;;;;;;11.50;45.30;;;;;;5034590;28;20272;-59
2021/04/28 07:10:49;;;;;;;;;;;11.60;45.40;;;;;;5034908;28;20348;-60
2021/04/28 07:13:15;;;;;;;;;;;11.80;45.40;;;;;;5034384;28;19943;-58
2021/04/28 07:15:41;;;;;;;;;;;11.80;45.10;;;;;;5034957;28;19944;-60
2021/04/28 07:18:08;;;;;;;;;;;12.00;45.30;;;;;;5034507;28;19925;-59
2021/04/28 07:20:34;;;;;;;;;;;12.20;45.20;;;;;;5034406;28;19925;-60
2021/04/28 07:23:01;;;;;;;;;;;12.30;45.10;;;;;;5034838;28;19925;-60
2021/04/28 07:25:28;;;;;;;;;;;12.50;44.80;;;;;;5034055;28;19925;-60
2021/04/28 07:27:54;;;;;;;;;;;12.60;44.30;;;;;;5034661;28;19925;-59
2021/04/28 07:30:21;;;;;;;;;;;12.50;43.90;;;;;;5034284;28;19982;-59
2021/04/28 07:32:50;;;;;;;;;;;12.70;44.20;;;;;;5034466;28;20360;-59
2021/04/28 07:35:18;;;;;;;;;;;12.70;43.80;;;;;;5034569;28;19975;-60
2021/04/28 07:37:45;;;;;;;;;;;12.90;43.90;;;;;;5034015;28;19929;-60
2021/04/28 07:40:12;;;;;;;;;;;13.00;43.90;;;;;;5034290;28;19925;-60
2021/04/28 07:42:40;;;;;;;;;;;13.10;43.40;;;;;;5034005;28;19929;-60
2021/04/28 07:45:06;;;;;;;;;;;13.20;43.40;;;;;;5034036;28;20335;-60
2021/04/28 07:47:33;;;;;;;;;;;13.20;42.80;;;;;;5033671;28;19925;-60
2021/04/28 07:49:59;;;;;;;;;;;13.30;43.30;;;;;;5034355;28;20383;-60
2021/04/28 07:52:25;;;;;;;;;;;13.40;43.90;;;;;;5033672;28;19929;-60
2021/04/28 07:54:52;;;;;;;;;;;13.50;43.00;;;;;;5033108;28;19944;-59
2021/04/28 07:57:19;;;;;;;;;;;13.60;42.90;;;;;;5033864;28;19932;-60
2021/04/28 07:59:45;;;;;;;;;;;13.80;42.80;;;;;;5033463;28;19936;-59
2021/04/28 08:02:14;;;;;;;;;;;13.90;42.60;;;;;;5033944;28;19933;-60
2021/04/28 08:04:41;;;;;;;;;;;14.00;42.30;;;;;;5033677;28;20352;-60
2021/04/28 08:07:07;;;;;;;;;;;14.00;42.10;;;;;;5033688;28;20279;-60
2021/04/28 08:09:35;;;;;;;;;;;14.10;42.00;;;;;;5033417;28;19936;-60
2021/04/28 08:12:02;;;;;;;;;;;14.30;41.90;;;;;;5033280;28;19925;-60
2021/04/28 08:14:29;;;;;;;;;;;14.40;41.50;;;;;;5032470;28;19936;-60
2021/04/28 08:16:56;;;;;;;;;;;14.50;41.10;;;;;;5033784;28;19925;-60
2021/04/28 08:19:22;;;;;;;;;;;14.60;41.00;;;;;;5033542;28;19925;-59
2021/04/28 08:21:49;;;;;;;;;;;14.70;40.90;;;;;;5033391;28;20448;-60
2021/04/28 08:24:15;;;;;;;;;;;14.80;40.80;;;;;;5033696;28;20012;-61
2021/04/28 08:26:41;;;;;;;;;;;14.90;41.10;;;;;;5033117;28;19952;-60
2021/04/28 08:29:07;;;;;;;;;;;15.00;41.10;;;;;;5033571;28;20314;-62
2021/04/28 08:31:35;;;;;;;;;;;15.00;41.00;;;;;;5033244;28;19925;-60
2021/04/28 08:34:01;;;;;;;;;;;15.00;41.30;;;;;;5033327;28;19932;-62
2021/04/28 08:36:28;;;;;;;;;;;15.10;41.50;;;;;;5032803;28;20355;-60
2021/04/28 08:38:54;;;;;;;;;;;15.20;41.70;;;;;;5033161;28;19925;-61
2021/04/28 08:41:21;;;;;;;;;;;15.20;41.40;;;;;;5033525;28;20354;-61
2021/04/28 08:43:47;;;;;;;;;;;15.30;41.30;;;;;;5032976;28;19925;-61
2021/04/28 08:46:14;;;;;;;;;;;15.40;41.10;;;;;;5033109;28;19929;-61
2021/04/28 08:48:42;;;;;;;;;;;15.50;41.40;;;;;;5031714;28;20323;-62
2021/04/28 08:51:10;;;;;;;;;;;15.50;41.10;;;;;;5032411;28;19929;-62
2021/04/28 08:53:38;;;;;;;;;;;15.50;41.00;;;;;;5032565;28;19932;-62
2021/04/28 08:56:05;;;;;;;;;;;15.50;41.10;;;;;;5032947;28;19983;-62
2021/04/28 08:58:32;;;;;;;;;;;15.50;41.00;;;;;;5032362;28;19932;-60
2021/04/28 09:00:58;;;;;;;;;;;15.50;40.90;;;;;;5033079;28;20240;-61
2021/04/28 09:03:37;;;;;;;;;;;15.60;40.80;;;;;;5032026;28;19925;-61
2021/04/28 09:06:23;;;;;;;;;;;15.60;40.50;;;;;;5033355;28;19936;-61
2021/04/28 09:08:50;;;;;;;;;;;15.70;40.60;;;;;;5033014;28;19924;-61
2021/04/28 09:11:31;;;;;;;;;;;15.70;40.30;;;;;;5032557;28;19932;-61
2021/04/28 09:14:04;;;;;;;;;;;15.70;40.10;;;;;;5032110;28;20247;-62
2021/04/28 09:16:30;;;;;;;;;;;15.70;40.40;;;;;;5032698;28;19936;-58
2021/04/28 09:18:56;;;;;;;;;;;15.70;40.30;;;;;;5032451;28;19932;-61
2021/04/28 09:21:46;;;;;;;;;;;15.70;39.90;;;;;;5032891;28;20340;-61
2021/04/28 09:24:19;;;;;;;;;;;15.70;40.00;;;;;;5033647;28;20348;-61
2021/04/28 09:26:46;;;;;;;;;;;15.70;39.50;;;;;;5036778;28;19925;-59
2021/04/28 09:29:16;;;;;;;;;;;15.80;39.70;;;;;;5036619;28;19931;-60
2021/04/28 09:31:53;;;;;;;;;;;15.80;40.00;;;;;;5036781;28;20268;-60
2021/04/28 09:34:25;;;;;;;;;;;15.90;39.80;;;;;;5036672;28;20642;-60
2021/04/28 09:37:00;;;;;;;;;;;15.90;39.60;;;;;;5036716;28;19925;-60
2021/04/28 09:39:26;;;;;;;;;;;16.00;39.80;;;;;;5036490;28;19945;-60
2021/04/28 09:41:55;;;;;;;;;;;16.10;39.30;;;;;;5036598;28;19926;-60
2021/04/28 09:44:23;;;;;;;;;;;16.10;39.50;;;;;;5036203;28;20016;-60
2021/04/28 09:46:56;;;;;;;;;;;16.20;39.80;;;;;;5036470;28;19957;-59
2021/04/28 09:49:23;;;;;;;;;;;16.30;40.00;;;;;;5036258;28;19929;-60
2021/04/28 09:51:53;;;;;;;;;;;16.30;39.90;;;;;;5036369;28;20035;-60
2021/04/28 09:54:27;;;;;;;;;;;16.30;40.10;;;;;;5035970;28;19925;-60
2021/04/28 09:56:54;;;;;;;;;;;16.30;40.20;;;;;;5036198;28;19936;-59
2021/04/28 09:59:20;;;;;;;;;;;16.50;40.30;;;;;;5036047;28;19955;-59
2021/04/28 10:01:46;;;;;;;;;;;16.50;40.40;;;;;;5036213;28;19925;-60
2021/04/28 10:04:13;;;;;;;;;;;16.50;40.30;;;;;;5035944;28;19936;-60
2021/04/28 10:06:40;;;;;;;;;;;16.60;40.50;;;;;;5036120;28;19976;-60
2021/04/28 10:09:08;;;;;;;;;;;16.70;40.70;;;;;;5035734;28;19925;-59
2021/04/28 10:11:35;;;;;;;;;;;16.70;40.60;;;;;;5036353;28;20367;-60
2021/04/28 10:14:02;;;;;;;;;;;16.70;40.10;;;;;;5036054;28;20351;-60
2021/04/28 10:16:28;;;;;;;;;;;16.80;40.30;;;;;;5035504;28;19925;-60
2021/04/28 10:18:55;;;;;;;;;;;16.80;40.30;;;;;;5035974;28;19925;-60
2021/04/28 10:21:21;;;;;;;;;;;16.90;40.30;;;;;;5035075;28;19925;-61
2021/04/28 10:23:49;;;;;;;;;;;16.90;40.40;;;;;;5036094;28;20342;-61
2021/04/28 10:26:15;;;;;;;;;;;17.00;40.10;;;;;;5035415;28;19925;-61
2021/04/28 10:28:43;;;;;;;;;;;17.10;40.00;;;;;;5035649;28;19986;-61
2021/04/28 10:31:09;;;;;;;;;;;17.10;39.90;;;;;;5035421;28;19940;-61
2021/04/28 10:33:38;;;;;;;;;;;17.10;39.60;;;;;;5035579;28;19959;-60
2021/04/28 10:36:05;;;;;;;;;;;17.20;39.80;;;;;;5034503;28;19925;-60
2021/04/28 10:38:34;;;;;;;;;;;17.20;39.30;;;;;;5035374;28;19933;-59
2021/04/28 10:41:02;;;;;;;;;;;17.30;39.40;;;;;;5035484;28;20026;-59
2021/04/28 10:43:34;;;;;;;;;;;17.30;39.40;;;;;;5034930;28;19933;-59
2021/04/28 10:46:16;;;;;;;;;;;17.40;39.60;;;;;;5035425;28;20351;-59
2021/04/28 10:48:43;;;;;;;;;;;17.40;38.80;;;;;;5035133;28;19925;-60
2021/04/28 10:51:29;;;;;;;;;;;17.50;38.80;;;;;;5035246;28;19933;-60
2021/04/28 10:54:21;;;;;;;;;;;17.50;38.40;;;;;;5035342;28;19929;-61
2021/04/28 10:56:57;;;;;;;;;;;17.50;38.60;;;;;;5034725;28;19925;-60
2021/04/28 10:59:34;;;;;;;;;;;17.40;38.60;;;;;;5035122;28;20348;-60
2021/04/28 11:02:05;;;;;;;;;;;17.50;38.60;;;;;;5034652;28;19945;-61
2021/04/28 11:04:31;;;;;;;;;;;17.60;38.80;;;;;;5035142;28;20010;-60
2021/04/28 11:06:58;;;;;;;;;;;17.70;38.70;;;;;;5034586;28;19925;-62
2021/04/28 11:09:25;;;;;;;;;;;17.70;39.00;;;;;;5034874;28;19925;-61
2021/04/28 11:11:54;;;;;;;;;;;17.80;38.60;;;;;;5034834;28;19987;-61
2021/04/28 11:14:30;;;;;;;;;;;17.80;38.60;;;;;;5035022;28;19953;-60
2021/04/28 11:16:58;;;;;;;;;;;17.90;38.60;;;;;;5033385;28;19937;-60
2021/04/28 11:19:26;;;;;;;;;;;18.00;38.50;;;;;;5035118;28;19932;-61
2021/04/28 11:22:12;;;;;;;;;;;18.10;38.50;;;;;;5034290;28;19936;-61
2021/04/28 11:24:59;;;;;;;;;;;18.10;38.00;;;;;;5034488;28;20475;-60
2021/04/28 11:27:42;;;;;;;;;;;18.20;37.80;;;;;;5031207;28;19969;-60
2021/04/28 11:30:20;;;;;;;;;;;18.20;37.60;;;;;;5034649;28;20138;-61
2021/04/28 11:33:01;;;;;;;;;;;18.20;37.60;;;;;;5034107;28;19929;-61
2021/04/28 11:35:28;;;;;;;;;;;18.20;37.70;;;;;;5033874;28;19925;-60
2021/04/28 11:38:02;;;;;;;;;;;18.20;37.70;;;;;;5034386;28;19925;-60
2021/04/28 11:40:29;;;;;;;;;;;18.10;37.60;;;;;;5034161;28;19928;-60
2021/04/28 11:42:55;;;;;;;;;;;18.20;37.80;;;;;;5034219;28;19924;-59
2021/04/28 11:45:21;;;;;;;;;;;18.20;37.60;;;;;;5034191;28;19925;-60
2021/04/28 11:47:48;;;;;;;;;;;18.20;37.60;;;;;;5033823;28;19936;-60
2021/04/28 11:50:14;;;;;;;;;;;18.20;38.00;;;;;;5033745;28;20275;-60
2021/04/28 11:52:44;;;;;;;;;;;18.30;38.40;;;;;;5033909;28;19925;-61
2021/04/28 11:55:12;;;;;;;;;;;18.40;38.50;;;;;;5034025;28;19933;-61
2021/04/28 11:57:38;;;;;;;;;;;18.50;38.80;;;;;;5033444;28;20378;-61
2021/04/28 12:00:05;;;;;;;;;;;18.60;38.30;;;;;;5034015;28;19925;-61
2021/04/28 12:02:32;;;;;;;;;;;18.50;38.30;;;;;;5033494;28;19956;-60
2021/04/28 12:04:58;;;;;;;;;;;18.60;38.50;;;;;;5033990;28;19930;-61
2021/04/28 12:07:24;;;;;;;;;;;18.50;38.30;;;;;;5033929;28;19929;-61
2021/04/28 12:09:52;;;;;;;;;;;18.50;38.50;;;;;;5033502;28;20355;-61
2021/04/28 12:12:20;;;;;;;;;;;18.50;38.00;;;;;;5033602;28;19945;-61
2021/04/28 12:14:47;;;;;;;;;;;18.60;37.30;;;;;;5032214;28;19933;-60
2021/04/28 12:17:16;;;;;;;;;;;18.50;37.30;;;;;;5032677;28;19933;-61
2021/04/28 12:19:44;;;;;;;;;;;18.50;38.20;;;;;;5032480;28;19925;-61
2021/04/28 12:22:10;;;;;;;;;;;18.50;38.00;;;;;;5032808;28;19925;-61
2021/04/28 12:24:37;;;;;;;;;;;18.50;38.80;;;;;;5032270;28;19932;-61
2021/04/28 12:27:07;;;;;;;;;;;18.60;38.40;;;;;;5033202;28;19925;-61
2021/04/28 12:29:36;;;;;;;;;;;18.60;38.20;;;;;;5033077;28;19936;-60
2021/04/28 12:32:02;;;;;;;;;;;18.70;38.40;;;;;;5032428;28;19929;-60
2021/04/28 12:34:28;;;;;;;;;;;18.60;38.00;;;;;;5032992;28;19929;-60
2021/04/28 12:36:58;;;;;;;;;;;18.70;38.30;;;;;;5033542;28;19929;-60
2021/04/28 12:39:25;;;;;;;;;;;18.80;38.30;;;;;;5033244;28;19933;-60
2021/04/28 12:41:52;;;;;;;;;;;18.80;38.00;;;;;;5033077;28;19944;-60
2021/04/28 12:44:19;;;;;;;;;;;18.90;38.00;;;;;;5033414;28;19935;-60
2021/04/28 12:46:45;;;;;;;;;;;18.90;37.80;;;;;;5032722;28;20245;-61
2021/04/28 12:49:12;;;;;;;;;;;18.90;38.00;;;;;;5033284;28;19937;-60
2021/04/28 12:51:46;;;;;;;;;;;19.00;37.80;;;;;;5032880;28;19929;-61
2021/04/28 12:54:13;;;;;;;;;;;19.10;37.90;;;;;;5033077;28;19924;-61
2021/04/28 12:56:40;;;;;;;;;;;19.10;38.10;;;;;;5032480;28;20278;-61
2021/04/28 12:59:14;;;;;;;;;;;19.20;38.80;;;;;;5032518;28;19925;-60
2021/04/28 13:01:46;;;;;;;;;;;19.10;37.70;;;;;;5032384;28;19932;-59
2021/04/28 13:04:19;;;;;;;;;;;19.10;38.10;;;;;;5033313;28;19948;-60
2021/04/28 13:06:45;;;;;;;;;;;19.20;38.20;;;;;;5032588;28;19925;-59
2021/04/28 13:09:15;;;;;;;;;;;19.10;37.90;;;;;;5033056;28;20322;-60
2021/04/28 13:11:42;;;;;;;;;;;19.10;37.60;;;;;;5032562;28;19932;-60
2021/04/28 13:14:15;;;;;;;;;;;19.10;37.80;;;;;;5032036;28;19929;-60
2021/04/28 13:16:43;;;;;;;;;;;19.10;37.60;;;;;;5032772;28;19928;-60
2021/04/28 13:19:11;;;;;;;;;;;19.20;37.70;;;;;;5032878;28;20355;-60
2021/04/28 13:21:38;;;;;;;;;;;19.20;38.20;;;;;;5032693;28;20295;-61
2021/04/28 13:24:07;;;;;;;;;;;19.20;38.40;;;;;;5032597;28;20318;-60
2021/04/28 13:26:35;;;;;;;;;;;19.30;38.60;;;;;;5031897;28;20422;-60
2021/04/28 13:29:01;;;;;;;;;;;19.40;38.30;;;;;;5032895;28;20371;-61
2021/04/28 13:31:28;;;;;;;;;;;19.30;37.20;;;;;;5032808;28;20271;-61
2021/04/28 13:33:56;;;;;;;;;;;19.30;37.20;;;;;;5032388;28;19971;-60
2021/04/28 13:36:26;;;;;;;;;;;19.30;37.30;;;;;;5032735;28;19937;-61
2021/04/28 13:38:53;;;;;;;;;;;19.20;36.90;;;;;;5032355;28;19933;-61
2021/04/28 13:41:20;;;;;;;;;;;19.30;37.20;;;;;;5031671;28;19926;-61
2021/04/28 13:43:49;;;;;;;;;;;19.20;37.30;;;;;;5048005;28;19936;-59
2021/04/28 13:46:15;;;;;;;;;;;19.30;37.60;;;;;;5032725;28;20272;-60
2021/04/28 13:48:42;;;;;;;;;;;19.30;37.90;;;;;;5032140;28;19936;-60
2021/04/28 13:51:10;;;;;;;;;;;19.30;38.10;;;;;;5032677;28;19933;-60
2021/04/28 13:53:36;;;;;;;;;;;19.20;38.20;;;;;;5032108;28;20362;-60
2021/04/28 13:56:04;;;;;;;;;;;19.20;38.40;;;;;;5032539;28;19926;-60
2021/04/28 13:58:31;;;;;;;;;;;19.20;38.30;;;;;;5031399;28;19960;-60
2021/04/28 14:00:57;;;;;;;;;;;19.20;38.20;;;;;;5032093;28;20363;-60
2021/04/28 14:03:23;;;;;;;;;;;19.20;38.20;;;;;;5032518;28;19932;-60
2021/04/28 14:05:50;;;;;;;;;;;19.20;38.00;;;;;;5032250;28;19936;-59
2021/04/28 14:08:18;;;;;;;;;;;19.20;37.90;;;;;;5032483;28;20233;-60
2021/04/28 14:10:45;;;;;;;;;;;19.20;37.90;;;;;;5033098;28;19925;-60
2021/04/28 14:13:12;;;;;;;;;;;19.20;38.00;;;;;;5035001;28;19925;-60
2021/04/28 14:15:38;;;;;;;;;;;19.20;37.90;;;;;;5035907;28;19982;-60
2021/04/28 14:18:05;;;;;;;;;;;19.20;37.50;;;;;;5036099;28;20012;-61
2021/04/28 14:20:32;;;;;;;;;;;19.10;37.40;;;;;;5035014;28;19933;-61
2021/04/28 14:22:59;;;;;;;;;;;19.00;37.60;;;;;;5035239;28;19925;-60